Time;durP1;ratioP1;P1;durP2;ratioP2;P2;SDS_P1;SDS_P2;PMS_P1;PMS_P2;Temp;Humidity;BMP_temperature;BMP_pressure;BME280_temperature;BME280_humidity;BME280_pressure;Samples;Min_cycle;Max_cycle;Signal;HPM_P1;HPM_P2
2022/05/14 00:00:34;;;;;;;14.32;4.22;;;14.70;64.80;;;;;;2299976;58;21053;-77
2022/05/14 00:03:02;;;;;;;12.32;4.25;;;14.80;65.30;;;;;;2327027;54;21062;-76
2022/05/14 00:05:29;;;;;;;14.27;4.30;;;14.80;65.20;;;;;;2298459;58;21055;-77
2022/05/14 00:07:57;;;;;;;13.43;3.85;;;14.80;65.40;;;;;;2300005;58;21070;-76
2022/05/14 00:10:29;;;;;;;11.82;3.83;;;14.70;65.30;;;;;;2300680;58;21158;-77
2022/05/14 00:13:05;;;;;;;6.93;3.75;;;14.70;65.10;;;;;;2392919;54;21066;-77
2022/05/14 00:15:36;;;;;;;14.35;4.72;;;14.80;64.80;;;;;;2301038;58;21126;-75
2022/05/14 00:18:04;;;;;;;12.02;3.60;;;14.80;64.50;;;;;;2300267;58;21162;-76
2022/05/14 00:20:32;;;;;;;7.75;3.92;;;14.80;64.50;;;;;;2301587;58;21177;-77
2022/05/14 00:22:59;;;;;;;10.20;3.80;;;14.80;64.30;;;;;;2299794;58;21082;-77
2022/05/14 00:25:27;;;;;;;10.88;4.60;;;14.70;64.20;;;;;;2300279;58;21145;-75
2022/05/14 00:27:55;;;;;;;13.18;4.53;;;14.80;64.40;;;;;;2299950;58;21070;-77
2022/05/14 00:30:25;;;;;;;12.98;4.00;;;14.80;64.20;;;;;;2382480;54;21114;-76
2022/05/14 00:32:53;;;;;;;11.00;3.58;;;14.80;63.70;;;;;;2300421;58;21142;-76
2022/05/14 00:35:21;;;;;;;13.50;3.75;;;14.80;63.90;;;;;;2300469;58;21054;-77
2022/05/14 00:37:49;;;;;;;10.65;3.78;;;14.80;63.40;;;;;;2299869;58;21055;-76
2022/05/14 00:40:19;;;;;;;12.00;3.87;;;14.80;63.40;;;;;;2300255;58;21153;-77
2022/05/14 00:42:46;;;;;;;12.30;3.60;;;14.80;63.40;;;;;;2299880;58;21122;-76
2022/05/14 00:45:16;;;;;;;9.63;3.92;;;14.80;63.50;;;;;;2299619;58;21070;-76
2022/05/14 00:47:46;;;;;;;18.10;4.18;;;14.80;63.90;;;;;;2299906;58;21051;-76
2022/05/14 00:50:21;;;;;;;10.32;4.37;;;14.80;63.90;;;;;;2301417;58;21141;-77
2022/05/14 00:52:49;;;;;;;13.07;4.80;;;14.80;63.60;;;;;;2300510;58;21049;-77
2022/05/14 00:55:18;;;;;;;12.95;5.10;;;14.80;63.70;;;;;;2300848;58;21197;-77
2022/05/14 00:57:47;;;;;;;9.98;4.32;;;14.90;63.50;;;;;;2300658;57;21569;-76
2022/05/14 01:00:19;;;;;;;12.85;4.87;;;14.90;63.80;;;;;;2299892;58;21141;-76
2022/05/14 01:02:46;;;;;;;14.65;4.95;;;14.80;64.10;;;;;;2299797;58;21532;-76
2022/05/14 01:05:17;;;;;;;10.60;4.32;;;14.90;63.60;;;;;;2300586;58;21144;-76
2022/05/14 01:07:46;;;;;;;7.80;3.35;;;14.80;63.60;;;;;;2301116;58;21058;-76
2022/05/14 01:10:16;;;;;;;10.95;3.60;;;14.80;63.60;;;;;;2335345;54;21042;-76
2022/05/14 01:12:49;;;;;;;14.10;4.45;;;14.80;63.70;;;;;;2300513;58;21138;-76
2022/05/14 01:15:20;;;;;;;9.57;4.15;;;14.80;63.40;;;;;;2300170;58;21070;-76
2022/05/14 01:17:48;;;;;;;12.23;4.82;;;14.90;62.60;;;;;;2299742;58;21138;-76
2022/05/14 01:20:17;;;;;;;13.43;3.97;;;14.90;62.80;;;;;;2299387;58;21066;-76
2022/05/14 01:23:01;;;;;;;8.93;4.18;;;14.90;62.80;;;;;;2300918;58;21065;-76
2022/05/14 01:28:22;;;;;;;10.83;4.50;;;14.90;63.00;;;;;;2300413;54;21077;-75
2022/05/14 01:30:55;;;;;;;12.15;4.15;;;14.80;63.20;;;;;;2300049;58;21110;-75
2022/05/14 01:33:22;;;;;;;11.35;4.70;;;14.80;63.70;;;;;;2300071;58;21130;-76
2022/05/14 01:35:50;;;;;;;8.25;4.03;;;14.80;63.60;;;;;;2299869;58;21072;-76
2022/05/14 01:40:54;;;;;;;12.73;4.68;;;14.80;63.60;;;;;;2352860;57;22659;-75
2022/05/14 01:43:21;;;;;;;15.05;5.00;;;14.80;63.70;;;;;;2346420;57;21543;-75
2022/05/14 01:45:48;;;;;;;10.63;3.90;;;14.80;63.90;;;;;;2346150;57;21124;-75
2022/05/14 01:48:16;;;;;;;10.25;4.45;;;14.80;63.90;;;;;;2368701;56;21043;-76
2022/05/14 01:50:43;;;;;;;14.52;4.50;;;14.80;63.70;;;;;;2373491;56;21019;-76
2022/05/14 01:53:10;;;;;;;17.05;4.87;;;14.80;64.00;;;;;;2515802;52;21051;-76
2022/05/14 01:55:38;;;;;;;8.70;4.43;;;14.80;63.60;;;;;;2373669;56;21542;-76
2022/05/14 02:00:54;;;;;;;10.73;4.78;;;14.90;63.70;;;;;;2391505;52;21107;-76
2022/05/14 02:03:21;;;;;;;11.57;4.37;;;14.90;63.80;;;;;;2374974;56;21106;-76
2022/05/14 02:05:49;;;;;;;11.68;4.12;;;14.90;63.30;;;;;;2373755;56;21138;-76
2022/05/14 02:08:16;;;;;;;11.10;4.40;;;14.90;63.30;;;;;;2374387;56;21075;-76
2022/05/14 02:10:43;;;;;;;13.52;4.60;;;14.90;64.00;;;;;;2413053;52;21122;-76
2022/05/14 02:13:11;;;;;;;16.80;4.97;;;14.90;64.30;;;;;;2372853;56;21054;-76
2022/05/14 02:15:39;;;;;;;10.77;4.35;;;14.80;64.50;;;;;;2372960;56;21039;-76
2022/05/14 02:18:06;;;;;;;13.20;4.57;;;14.80;64.70;;;;;;2374929;56;21063;-75
2022/05/14 02:20:33;;;;;;;14.10;4.93;;;14.80;64.20;;;;;;2372692;56;21023;-76
2022/05/14 02:23:01;;;;;;;11.77;4.53;;;14.90;64.50;;;;;;2379971;52;21042;-76
2022/05/14 02:25:28;;;;;;;13.30;5.03;;;14.90;64.40;;;;;;2374191;56;21047;-76
2022/05/14 02:27:55;;;;;;;13.80;5.05;;;14.90;64.20;;;;;;2374264;56;21035;-76
2022/05/14 02:30:23;;;;;;;10.50;5.07;;;14.90;64.20;;;;;;2381189;52;21118;-76
2022/05/14 02:32:50;;;;;;;11.32;4.50;;;14.90;64.20;;;;;;2374952;56;21039;-76
2022/05/14 02:35:18;;;;;;;10.18;5.00;;;14.90;64.50;;;;;;2402656;52;21063;-76
2022/05/14 02:37:45;;;;;;;10.30;4.87;;;14.80;64.40;;;;;;2378594;52;21059;-77
2022/05/14 02:40:13;;;;;;;11.88;4.43;;;14.80;64.50;;;;;;2373735;56;21095;-76
2022/05/14 02:42:41;;;;;;;9.23;4.43;;;14.80;64.70;;;;;;2373258;56;21054;-76
2022/05/14 02:45:10;;;;;;;17.60;5.25;;;14.80;64.40;;;;;;2374481;56;21047;-76
2022/05/14 02:47:38;;;;;;;13.20;6.10;;;14.80;64.60;;;;;;2374154;56;21106;-76
2022/05/14 02:50:08;;;;;;;12.32;5.60;;;14.90;64.50;;;;;;2374692;56;21082;-76
2022/05/14 02:52:36;;;;;;;10.23;4.90;;;14.80;65.90;;;;;;2373249;56;21114;-77
2022/05/14 02:55:06;;;;;;;13.27;5.22;;;14.80;65.50;;;;;;2372747;56;21052;-76
2022/05/14 02:57:33;;;;;;;10.77;4.65;;;14.80;65.80;;;;;;2373915;56;21090;-76
2022/05/14 03:00:01;;;;;;;11.65;4.97;;;14.80;65.40;;;;;;2373437;56;21110;-77
2022/05/14 03:02:28;;;;;;;13.60;4.60;;;14.80;65.50;;;;;;2456693;52;21066;-76
2022/05/14 03:04:55;;;;;;;16.58;5.18;;;14.80;65.60;;;;;;2372796;56;21542;-76
2022/05/14 03:07:23;;;;;;;15.70;5.35;;;14.80;65.70;;;;;;2373323;56;21161;-76
2022/05/14 03:09:50;;;;;;;11.80;5.30;;;14.80;65.70;;;;;;2373341;56;21043;-77
2022/05/14 03:12:19;;;;;;;10.82;5.75;;;14.80;65.90;;;;;;2373985;56;21059;-76
2022/05/14 03:14:46;;;;;;;18.20;4.93;;;14.70;66.00;;;;;;2373037;56;21039;-76
2022/05/14 03:17:13;;;;;;;15.70;5.53;;;14.70;66.30;;;;;;2373090;56;21050;-76
2022/05/14 03:19:41;;;;;;;13.10;4.97;;;14.70;66.50;;;;;;2344748;52;70771;-78
2022/05/14 03:22:08;;;;;;;14.50;5.72;;;14.70;66.60;;;;;;2330771;57;21058;-78
2022/05/14 03:24:36;;;;;;;14.93;5.25;;;14.70;66.50;;;;;;2329920;57;21786;-77
2022/05/14 03:27:05;;;;;;;13.15;6.25;;;14.70;66.50;;;;;;2331353;57;21129;-78
2022/05/14 03:29:32;;;;;;;15.70;5.22;;;14.70;66.70;;;;;;2329810;57;21070;-78
2022/05/14 03:32:00;;;;;;;12.82;5.95;;;14.70;65.80;;;;;;2329657;57;21046;-78
2022/05/14 03:34:27;;;;;;;21.62;5.78;;;14.70;66.00;;;;;;2328812;57;21634;-78
2022/05/14 03:36:55;;;;;;;15.05;5.80;;;14.70;66.40;;;;;;2572929;54;21173;-78
2022/05/14 03:39:22;;;;;;;11.45;4.93;;;14.70;66.90;;;;;;2573160;53;22202;-78
2022/05/14 03:41:49;;;;;;;11.70;5.55;;;14.70;67.20;;;;;;2329438;57;21566;-79
2022/05/14 03:44:17;;;;;;;16.25;5.40;;;14.70;66.90;;;;;;2329150;57;21122;-78
2022/05/14 03:46:44;;;;;;;18.02;5.85;;;14.70;66.90;;;;;;2328905;57;21030;-78
2022/05/14 03:49:11;;;;;;;14.25;5.05;;;14.70;67.40;;;;;;2329884;57;21046;-78
2022/05/14 03:51:39;;;;;;;10.75;5.40;;;14.70;67.40;;;;;;2329807;57;21105;-78
2022/05/14 03:54:06;;;;;;;13.18;4.90;;;14.70;67.60;;;;;;2572828;54;21130;-78
2022/05/14 03:56:33;;;;;;;13.50;5.50;;;14.70;67.30;;;;;;2329270;57;21625;-78
2022/05/14 03:59:02;;;;;;;13.30;4.97;;;14.70;67.10;;;;;;2328835;57;21129;-77
2022/05/14 04:01:29;;;;;;;17.05;5.87;;;14.80;67.30;;;;;;2329696;57;21157;-78
2022/05/14 04:03:57;;;;;;;16.87;5.82;;;14.70;67.10;;;;;;2329942;57;21585;-78
2022/05/14 04:06:24;;;;;;;18.70;6.20;;;14.70;66.90;;;;;;2329576;57;21205;-78
2022/05/14 04:08:51;;;;;;;17.45;6.07;;;14.80;67.10;;;;;;2329079;57;21566;-79
2022/05/14 04:11:18;;;;;;;12.23;5.28;;;14.80;68.00;;;;;;2329203;57;21062;-78
2022/05/14 04:13:45;;;;;;;16.10;5.18;;;14.80;67.20;;;;;;2329582;57;21046;-78
2022/05/14 04:16:13;;;;;;;14.27;5.40;;;14.90;66.90;;;;;;2328858;57;21042;-78
2022/05/14 04:18:40;;;;;;;12.50;5.70;;;14.90;66.30;;;;;;2573038;53;21058;-78
2022/05/14 04:21:07;;;;;;;16.50;4.97;;;14.90;67.20;;;;;;2329351;57;21094;-78
2022/05/14 04:23:34;;;;;;;19.20;6.22;;;14.90;67.00;;;;;;2573568;54;21034;-78
2022/05/14 04:26:01;;;;;;;18.75;5.72;;;14.90;67.30;;;;;;2573116;53;21050;-79
2022/05/14 04:28:29;;;;;;;25.30;5.80;;;14.90;67.60;;;;;;2330259;57;21031;-78
2022/05/14 04:30:56;;;;;;;13.98;6.18;;;14.90;67.90;;;;;;2328289;57;21062;-78
2022/05/14 04:33:26;;;;;;;21.20;5.60;;;14.90;67.50;;;;;;2329642;57;21042;-78
2022/05/14 04:35:53;;;;;;;14.60;5.85;;;14.90;67.80;;;;;;2329721;57;21097;-78
2022/05/14 04:38:20;;;;;;;14.77;6.00;;;14.90;68.00;;;;;;2329247;57;21062;-79
2022/05/14 04:40:48;;;;;;;12.48;5.93;;;14.90;68.20;;;;;;2329221;57;21062;-78
2022/05/14 04:43:15;;;;;;;21.37;6.20;;;14.90;68.00;;;;;;2571714;54;21212;-76
2022/05/14 04:45:44;;;;;;;15.55;5.70;;;14.90;68.50;;;;;;2329393;57;21138;-78
2022/05/14 04:48:11;;;;;;;15.93;5.60;;;14.80;68.60;;;;;;2573314;53;21110;-79
2022/05/14 04:50:39;;;;;;;13.70;5.15;;;14.90;68.50;;;;;;2329939;57;21019;-79
2022/05/14 04:53:07;;;;;;;13.50;4.97;;;14.90;68.40;;;;;;2329357;57;21110;-78
2022/05/14 04:55:35;;;;;;;17.12;6.37;;;14.90;68.40;;;;;;2573032;54;21113;-78
2022/05/14 04:58:03;;;;;;;20.08;6.30;;;14.90;68.80;;;;;;2571878;54;21069;-78
2022/05/14 05:00:30;;;;;;;15.43;5.53;;;14.90;68.40;;;;;;2329164;57;21066;-79
2022/05/14 05:05:42;;;;;;;14.65;5.55;;;14.90;68.30;;;;;;2330208;57;21097;-79
2022/05/14 05:08:10;;;;;;;18.65;6.72;;;15.00;68.00;;;;;;2573165;53;21054;-79
2022/05/14 05:10:37;;;;;;;15.80;6.45;;;14.90;68.30;;;;;;2330666;57;21118;-80
2022/05/14 05:13:07;;;;;;;24.80;6.82;;;15.00;68.80;;;;;;2573906;53;21026;-79
2022/05/14 05:15:35;;;;;;;24.00;6.40;;;15.00;69.10;;;;;;2330078;57;21149;-79
2022/05/14 05:18:02;;;;;;;21.10;7.93;;;14.90;69.00;;;;;;2329862;57;21546;-79
2022/05/14 05:20:29;;;;;;;25.02;7.05;;;14.90;69.20;;;;;;2573266;53;21058;-79
2022/05/14 05:22:57;;;;;;;22.87;6.45;;;14.90;69.10;;;;;;2330214;57;21070;-79
2022/05/14 05:25:25;;;;;;;19.35;7.20;;;15.00;69.30;;;;;;2330135;57;21050;-79
2022/05/14 05:27:52;;;;;;;19.85;5.82;;;15.00;68.80;;;;;;2329353;57;21141;-79
2022/05/14 05:30:20;;;;;;;20.08;6.18;;;15.00;69.10;;;;;;2330226;57;21058;-79
2022/05/14 05:32:47;;;;;;;14.23;5.93;;;15.00;69.10;;;;;;2329789;57;21633;-78
2022/05/14 05:35:14;;;;;;;18.27;5.80;;;15.00;69.50;;;;;;2330703;57;21114;-77
2022/05/14 05:37:41;;;;;;;17.05;6.72;;;15.00;69.70;;;;;;2330761;57;21340;-79
2022/05/14 05:40:11;;;;;;;28.00;7.00;;;15.00;69.30;;;;;;2330365;57;21066;-79
2022/05/14 05:42:38;;;;;;;19.00;6.35;;;15.10;69.40;;;;;;2329996;57;21066;-79
2022/05/14 05:45:07;;;;;;;17.10;6.75;;;15.10;69.60;;;;;;2330042;57;21046;-79
2022/05/14 05:47:34;;;;;;;16.33;6.97;;;15.10;69.50;;;;;;2330214;57;21042;-79
2022/05/14 05:50:01;;;;;;;17.15;5.85;;;15.10;69.50;;;;;;2329684;57;21135;-79
2022/05/14 05:52:28;;;;;;;16.95;6.18;;;15.20;69.20;;;;;;2330751;57;21070;-80
2022/05/14 05:57:41;;;;;;;12.77;5.43;;;15.20;69.50;;;;;;2331110;57;21026;-80
2022/05/14 06:00:12;;;;;;;19.10;5.78;;;15.20;68.70;;;;;;2329474;57;21054;-81
2022/05/14 06:05:15;;;;;;;23.33;7.33;;;15.20;68.50;;;;;;2334897;57;38077;-72
2022/05/14 06:07:43;;;;;;;19.92;6.80;;;15.10;71.20;;;;;;2361736;56;21061;-73
2022/05/14 06:10:13;;;;;;;17.55;6.25;;;15.20;69.90;;;;;;2374290;56;21038;-73
2022/05/14 06:12:40;;;;;;;17.77;5.53;;;15.30;69.70;;;;;;2374049;56;21047;-73
2022/05/14 06:15:09;;;;;;;20.70;6.32;;;15.30;69.30;;;;;;2373877;56;21174;-72
2022/05/14 06:17:38;;;;;;;17.87;5.53;;;15.40;69.00;;;;;;2626934;52;21545;-73
2022/05/14 06:20:11;;;;;;;15.23;5.12;;;15.40;69.30;;;;;;2374517;56;21054;-72
2022/05/14 06:22:38;;;;;;;;;;;15.50;68.90;;;;;;2377419;56;21050;-73
2022/05/14 06:25:09;;;;;;;21.25;5.97;;;15.60;68.50;;;;;;2371749;56;20078;-72
2022/05/14 06:27:36;;;;;;;16.55;4.80;;;15.60;68.30;;;;;;2370190;56;21063;-72
2022/05/14 06:30:05;;;;;;;18.08;6.35;;;15.70;68.60;;;;;;2373588;56;21130;-73
2022/05/14 06:32:32;;;;;;;16.55;5.55;;;15.70;68.90;;;;;;2373204;56;21023;-73
2022/05/14 06:34:59;;;;;;;19.20;5.55;;;15.80;68.80;;;;;;2372743;56;21058;-72
2022/05/14 06:37:27;;;;;;;21.15;7.07;;;15.80;68.40;;;;;;2374302;56;21047;-73
2022/05/14 06:39:54;;;;;;;19.42;6.03;;;15.90;68.60;;;;;;2374094;56;21135;-73
2022/05/14 06:42:21;;;;;;;22.15;6.10;;;15.90;67.50;;;;;;2374657;56;21119;-73
2022/05/14 06:44:48;;;;;;;17.95;5.60;;;16.00;69.00;;;;;;2373997;56;21053;-73
2022/05/14 06:47:16;;;;;;;24.73;6.32;;;16.00;68.30;;;;;;2372941;56;21640;-73
2022/05/14 06:49:43;;;;;;;23.40;7.82;;;16.00;68.20;;;;;;2374345;56;21039;-72
2022/05/14 06:52:14;;;;;;;20.95;5.28;;;16.10;68.40;;;;;;2373114;56;21047;-72
2022/05/14 06:54:45;;;;;;;23.20;6.05;;;16.10;67.70;;;;;;2373247;56;21058;-72
2022/05/14 06:57:13;;;;;;;19.30;5.97;;;16.10;67.70;;;;;;2373477;56;21569;-73
2022/05/14 06:59:40;;;;;;;14.73;4.78;;;16.20;67.10;;;;;;2373336;56;21039;-73
2022/05/14 07:02:10;;;;;;;19.67;5.25;;;16.20;67.10;;;;;;2374129;56;21050;-72
2022/05/14 07:10:15;;;;;;;21.07;6.50;;;16.20;67.00;;;;;;2336224;57;28309;-73
2022/05/14 07:12:42;;;;;;;20.70;4.75;;;16.30;67.40;;;;;;2345605;57;21057;-73
2022/05/14 07:15:12;;;;;;;19.70;5.87;;;16.40;67.40;;;;;;2593441;53;21141;-73
2022/05/14 07:17:39;;;;;;;28.27;5.40;;;16.50;66.60;;;;;;2361019;56;21517;-74
2022/05/14 07:20:09;;;;;;;17.20;5.55;;;16.60;66.70;;;;;;2374660;56;21193;-73
2022/05/14 07:22:37;;;;;;;19.37;5.37;;;16.60;66.40;;;;;;2374911;56;21039;-73
2022/05/14 07:25:05;;;;;;;21.17;5.50;;;16.60;66.00;;;;;;2627000;52;21127;-74
2022/05/14 07:27:32;;;;;;;21.52;5.62;;;16.60;65.80;;;;;;2373786;56;21051;-74
2022/05/14 07:30:00;;;;;;;17.83;5.70;;;16.60;66.10;;;;;;2625950;52;21035;-74
2022/05/14 07:32:27;;;;;;;17.40;5.50;;;16.60;65.80;;;;;;2374222;56;21039;-74
2022/05/14 07:34:54;;;;;;;28.45;6.43;;;16.60;65.30;;;;;;2372436;56;21043;-73
2022/05/14 07:37:28;;;;;;;17.85;5.37;;;16.70;65.10;;;;;;2373614;56;21106;-75
2022/05/14 07:39:55;;;;;;;;;;;16.70;64.80;;;;;;2376568;56;21098;-74
2022/05/14 07:42:28;;;;;;;22.67;6.03;;;16.80;64.70;;;;;;2373705;56;20112;-74
2022/05/14 07:44:58;;;;;;;22.60;5.78;;;16.80;65.00;;;;;;2373950;56;21359;-74
2022/05/14 07:47:26;;;;;;;20.85;5.43;;;16.80;64.90;;;;;;2371755;56;21051;-74
2022/05/14 07:49:53;;;;;;;16.67;4.70;;;16.80;64.80;;;;;;2373096;56;21533;-73
2022/05/14 07:52:21;;;;;;;21.70;5.53;;;16.90;64.60;;;;;;2626818;52;21047;-73
2022/05/14 07:54:48;;;;;;;20.48;5.30;;;16.90;64.30;;;;;;2373638;56;21051;-72
2022/05/14 07:57:18;;;;;;;10.55;3.97;;;16.90;64.00;;;;;;2373964;56;21128;-73
2022/05/14 07:59:46;;;;;;;15.82;3.87;;;16.80;64.00;;;;;;2374907;56;21039;-74
2022/05/14 08:02:22;;;;;;;23.42;4.82;;;16.90;64.10;;;;;;2374219;56;21545;-73
2022/05/14 08:04:50;;;;;;;19.05;4.93;;;17.00;64.60;;;;;;2628762;52;21117;-73
2022/05/14 08:07:17;;;;;;;19.35;4.72;;;17.10;62.80;;;;;;2374379;56;21035;-72
2022/05/14 08:09:45;;;;;;;21.58;4.90;;;17.00;62.70;;;;;;2375149;56;21114;-72
2022/05/14 08:12:12;;;;;;;12.90;4.10;;;17.10;62.40;;;;;;2374830;56;21027;-73
2022/05/14 08:14:40;;;;;;;20.30;4.50;;;17.10;62.50;;;;;;2375387;56;21126;-72
2022/05/14 08:17:08;;;;;;;13.45;3.92;;;17.20;61.30;;;;;;2373743;56;21154;-72
2022/05/14 08:19:35;;;;;;;19.02;4.93;;;17.20;61.80;;;;;;2374815;56;21090;-73
2022/05/14 08:24:48;;;;;;;14.85;4.65;;;17.30;60.90;;;;;;2373367;56;21070;-73
2022/05/14 08:27:16;;;;;;;17.25;4.62;;;17.30;60.80;;;;;;2373519;56;21122;-74
2022/05/14 08:29:47;;;;;;;14.20;3.95;;;17.40;61.60;;;;;;2374214;56;21130;-73
2022/05/14 08:32:18;;;;;;;13.07;3.92;;;17.40;60.10;;;;;;2374390;56;21054;-73
2022/05/14 08:34:45;;;;;;;14.82;4.57;;;17.40;60.00;;;;;;2373219;56;21097;-73
2022/05/14 08:37:13;;;;;;;23.00;4.50;;;17.30;59.30;;;;;;2373211;56;21051;-73
2022/05/14 08:39:40;;;;;;;15.93;4.20;;;17.30;59.80;;;;;;2373524;56;21399;-73
2022/05/14 08:42:10;;;;;;;16.48;3.70;;;17.40;60.10;;;;;;2374309;56;21051;-73
2022/05/14 08:44:44;;;;;;;11.95;3.85;;;17.50;58.70;;;;;;2627108;52;21101;-73
2022/05/14 08:47:27;;;;;;;15.60;3.70;;;17.50;57.90;;;;;;2626497;52;21115;-73
2022/05/14 08:49:56;;;;;;;20.98;4.60;;;17.50;58.10;;;;;;2374142;56;21063;-73
2022/05/14 08:52:25;;;;;;;14.87;3.53;;;17.60;58.50;;;;;;2374002;56;21301;-72
2022/05/14 08:54:56;;;;;;;8.95;3.15;;;17.60;58.00;;;;;;2373497;56;21102;-73
2022/05/14 08:57:35;;;;;;;12.85;3.20;;;17.60;57.80;;;;;;2372925;56;21058;-72
2022/05/14 09:00:04;;;;;;;9.30;3.15;;;17.50;57.60;;;;;;2374143;56;21122;-73
2022/05/14 09:02:34;;;;;;;13.88;3.58;;;17.50;57.60;;;;;;2373399;56;21083;-73
2022/05/14 09:05:05;;;;;;;9.00;3.00;;;17.60;58.30;;;;;;2374049;56;21091;-73
2022/05/14 09:07:33;;;;;;;11.82;3.70;;;17.70;58.30;;;;;;2373882;56;21125;-73
2022/05/14 09:10:00;;;;;;;14.65;3.40;;;17.70;57.80;;;;;;2373080;56;21162;-73
2022/05/14 09:12:31;;;;;;;7.50;2.80;;;17.70;57.50;;;;;;2626903;52;21096;-72
2022/05/14 09:15:01;;;;;;;13.70;3.75;;;17.80;57.70;;;;;;2374042;56;21024;-72
2022/05/14 09:17:30;;;;;;;14.70;4.22;;;17.90;57.70;;;;;;2373834;56;21671;-72
2022/05/14 09:19:59;;;;;;;8.90;2.92;;;18.00;57.00;;;;;;2412662;55;21122;-73
2022/05/14 09:22:39;;;;;;;14.48;3.60;;;18.00;56.80;;;;;;2245716;60;21065;-72
2022/05/14 09:28:05;;;;;;;13.73;3.75;;;18.10;57.20;;;;;;2374569;56;22057;-73
2022/05/14 09:30:35;;;;;;;9.95;2.70;;;18.10;56.60;;;;;;2374330;56;21053;-73
2022/05/14 09:33:04;;;;;;;16.58;3.80;;;18.20;57.10;;;;;;2375272;56;21065;-73
2022/05/14 09:35:34;;;;;;;12.65;3.22;;;18.20;56.70;;;;;;2374003;56;21058;-74
2022/05/14 09:38:10;;;;;;;14.40;3.78;;;18.30;56.80;;;;;;2375277;56;21046;-74
2022/05/14 09:40:38;;;;;;;13.93;3.87;;;18.30;56.60;;;;;;2375461;56;21121;-73
2022/05/14 09:43:12;;;;;;;13.57;3.80;;;18.30;56.80;;;;;;2375236;56;21174;-74
2022/05/14 09:45:40;;;;;;;;;;;18.30;55.90;;;;;;2377785;56;21105;-74
2022/05/14 09:48:16;;;;;;;12.35;3.83;;;18.40;55.80;;;;;;2374779;56;20109;-74
2022/05/14 09:53:27;;;;;;;12.20;3.60;;;18.30;55.10;;;;;;2309665;57;30762;-73
2022/05/14 09:56:25;;;;;;;17.08;5.03;;;18.40;55.70;;;;;;2346406;57;21583;-74
2022/05/14 09:59:08;;;;;;;17.02;3.12;;;18.40;55.70;;;;;;2320725;58;21058;-73
2022/05/14 10:01:44;;;;;;;14.50;3.75;;;18.40;55.50;;;;;;2320836;58;21127;-74
2022/05/14 10:04:28;;;;;;;13.27;3.25;;;18.40;55.30;;;;;;2320292;58;21048;-77
2022/05/14 10:07:00;;;;;;;13.70;3.05;;;18.40;55.50;;;;;;2319750;58;21527;-76
2022/05/14 10:09:37;;;;;;;17.87;3.58;;;18.40;55.20;;;;;;2319560;58;21044;-76
2022/05/14 10:12:19;;;;;;;17.10;3.33;;;18.40;55.20;;;;;;2319043;58;21131;-76
2022/05/14 10:14:58;;;;;;;15.88;3.40;;;18.40;55.10;;;;;;2317947;58;21199;-76
2022/05/14 10:17:40;;;;;;;16.12;3.78;;;18.40;55.40;;;;;;2317921;58;21040;-76
2022/05/14 10:20:32;;;;;;;15.48;3.47;;;18.40;55.70;;;;;;2318878;58;21581;-76
2022/05/14 10:29:09;;;;;;;16.40;3.17;;;18.40;55.90;;;;;;2318712;58;21019;-76
2022/05/14 10:31:44;;;;;;;13.80;4.40;;;18.30;55.70;;;;;;2319544;58;21041;-76
2022/05/14 10:34:16;;;;;;;13.40;4.03;;;18.30;56.10;;;;;;2319243;58;21138;-76
2022/05/14 10:36:49;;;;;;;20.25;4.15;;;18.30;56.30;;;;;;2319302;58;21175;-76
2022/05/14 10:39:22;;;;;;;11.88;3.80;;;18.40;56.50;;;;;;2319477;58;21116;-74
2022/05/14 10:41:52;;;;;;;;;;;18.40;56.70;;;;;;2322867;58;21092;-76
2022/05/14 10:44:28;;;;;;;13.57;3.92;;;18.50;56.70;;;;;;2318820;58;20066;-75
2022/05/14 10:46:58;;;;;;;13.45;3.28;;;18.60;55.90;;;;;;2319957;58;21052;-75
2022/05/14 10:49:47;;;;;;;13.75;3.53;;;18.70;55.80;;;;;;2319663;58;21064;-77
2022/05/14 10:52:16;;;;;;;16.80;3.97;;;18.60;55.80;;;;;;2319386;58;21630;-77
2022/05/14 10:54:44;;;;;;;17.05;3.97;;;18.60;55.80;;;;;;2319851;58;21074;-77
2022/05/14 10:57:27;;;;;;;15.90;4.25;;;18.60;55.90;;;;;;2560843;54;21189;-76
2022/05/14 11:00:01;;;;;;;14.25;3.92;;;18.60;55.20;;;;;;2319567;58;21056;-77
2022/05/14 11:02:31;;;;;;;15.25;3.45;;;18.60;54.60;;;;;;2319721;58;21076;-77
2022/05/14 11:04:59;;;;;;;12.60;3.15;;;18.70;55.80;;;;;;2319221;58;21040;-76
2022/05/14 11:07:30;;;;;;;11.70;3.55;;;18.70;55.10;;;;;;2318673;58;21096;-77
2022/05/14 11:10:16;;;;;;;12.65;2.92;;;18.80;55.00;;;;;;2318248;58;21583;-77
2022/05/14 11:12:45;;;;;;;13.80;3.00;;;18.80;54.80;;;;;;2318815;58;21123;-77
2022/05/14 11:15:22;;;;;;;13.15;3.78;;;18.80;54.80;;;;;;2319382;58;21049;-77
2022/05/14 11:17:50;;;;;;;15.70;3.60;;;18.80;54.20;;;;;;2318303;58;21104;-74
2022/05/14 11:20:19;;;;;;;11.73;3.72;;;18.80;55.10;;;;;;2318639;58;21068;-77
2022/05/14 11:22:48;;;;;;;10.95;2.78;;;18.80;54.80;;;;;;2316996;58;21036;-77
2022/05/14 11:25:25;;;;;;;11.20;3.40;;;18.90;54.20;;;;;;2317151;58;21127;-78
2022/05/14 11:27:58;;;;;;;7.97;2.85;;;19.10;53.80;;;;;;2318352;58;21148;-77
2022/05/14 11:30:34;;;;;;;11.00;2.50;;;19.10;53.80;;;;;;2319307;58;21048;-77
2022/05/14 11:33:02;;;;;;;14.93;3.10;;;19.30;54.40;;;;;;2560712;54;21048;-75
2022/05/14 11:35:38;;;;;;;12.27;2.90;;;19.50;53.20;;;;;;2319039;58;21190;-76
2022/05/14 11:38:15;;;;;;;5.05;2.28;;;19.60;52.10;;;;;;2318600;58;21059;-77
2022/05/14 11:40:42;;;;;;;11.43;2.80;;;19.70;51.70;;;;;;2319860;58;21071;-77
2022/05/14 11:43:25;;;;;;;9.95;2.83;;;19.80;51.00;;;;;;2317582;58;21049;-75
2022/05/14 11:46:11;;;;;;;11.02;2.65;;;20.00;50.80;;;;;;2319185;58;21135;-77
2022/05/14 11:48:45;;;;;;;8.77;2.37;;;20.10;49.70;;;;;;2319363;58;21072;-77
2022/05/14 11:51:22;;;;;;;16.42;2.45;;;20.30;50.40;;;;;;2319001;58;21068;-75
2022/05/14 11:53:55;;;;;;;10.20;2.60;;;20.50;49.60;;;;;;2319469;58;21167;-77
2022/05/14 11:56:33;;;;;;;12.35;2.50;;;20.50;47.20;;;;;;2317221;58;21082;-76
2022/05/14 11:59:05;;;;;;;6.90;2.08;;;20.60;47.40;;;;;;2317939;58;21095;-78
2022/05/14 12:01:37;;;;;;;10.38;2.15;;;20.70;46.30;;;;;;2319216;58;21036;-77
2022/05/14 12:04:14;;;;;;;8.80;2.47;;;20.80;46.50;;;;;;2319186;58;21161;-77
2022/05/14 12:07:05;;;;;;;9.18;2.40;;;20.80;46.40;;;;;;2318786;58;21552;-77
2022/05/14 12:09:49;;;;;;;10.20;2.47;;;20.90;46.20;;;;;;2318782;58;21104;-77
2022/05/14 12:12:26;;;;;;;8.40;2.37;;;21.00;47.50;;;;;;2318983;58;21170;-77
2022/05/14 12:14:54;;;;;;;6.53;2.30;;;21.00;46.30;;;;;;2319311;58;21041;-76
2022/05/14 12:17:23;;;;;;;8.82;2.17;;;21.20;46.70;;;;;;2318869;58;21040;-77
2022/05/14 12:19:55;;;;;;;4.72;1.98;;;21.30;47.00;;;;;;2320234;58;21238;-77
2022/05/14 12:22:29;;;;;;;7.70;2.17;;;21.30;45.10;;;;;;2320118;58;21052;-77
2022/05/14 12:24:58;;;;;;;5.80;1.70;;;21.30;44.50;;;;;;2320018;58;21071;-75
2022/05/14 12:27:27;;;;;;;4.60;1.92;;;21.40;44.50;;;;;;2319747;58;21072;-77
2022/05/14 12:29:57;;;;;;;6.55;2.10;;;21.40;43.70;;;;;;2318159;58;21088;-75
2022/05/14 12:35:22;;;;;;;7.12;2.72;;;21.50;44.60;;;;;;2319988;58;21004;-78
2022/05/14 12:37:53;;;;;;;6.35;2.17;;;21.60;44.20;;;;;;2319749;58;21040;-77
2022/05/14 12:40:25;;;;;;;12.77;2.85;;;21.60;44.40;;;;;;2319685;58;21074;-77
2022/05/14 12:42:53;;;;;;;6.10;2.10;;;21.50;43.40;;;;;;2319862;58;21131;-77
2022/05/14 12:45:31;;;;;;;11.63;2.30;;;21.50;44.80;;;;;;2319169;58;21068;-77
2022/05/14 12:48:01;;;;;;;11.98;2.20;;;21.40;44.40;;;;;;2319197;58;21041;-76
2022/05/14 12:50:30;;;;;;;6.70;1.62;;;21.30;44.20;;;;;;2319619;58;21693;-76
2022/05/14 12:53:00;;;;;;;10.70;2.33;;;21.30;44.10;;;;;;2319586;58;21402;-79
2022/05/14 12:55:28;;;;;;;8.48;2.30;;;21.20;43.90;;;;;;2318799;58;21055;-77
2022/05/14 12:57:57;;;;;;;8.77;2.40;;;21.10;43.80;;;;;;2319095;58;21044;-77
2022/05/14 13:00:25;;;;;;;6.30;2.20;;;21.10;44.90;;;;;;2319330;58;21040;-75
2022/05/14 13:03:00;;;;;;;9.88;2.42;;;21.00;45.10;;;;;;2560919;54;21664;-77
2022/05/14 13:05:33;;;;;;;8.18;2.40;;;21.00;45.70;;;;;;2319892;58;21135;-76
2022/05/14 13:08:07;;;;;;;5.40;2.22;;;21.00;46.20;;;;;;2319893;58;21067;-77
2022/05/14 13:10:35;;;;;;;11.40;3.10;;;21.00;46.70;;;;;;2319761;58;21100;-77
2022/05/14 13:13:05;;;;;;;9.32;2.50;;;21.00;46.90;;;;;;2318667;58;21210;-76
2022/05/14 13:15:34;;;;;;;11.93;2.62;;;20.90;46.80;;;;;;2318494;58;21052;-77
2022/05/14 13:18:13;;;;;;;8.95;2.50;;;20.80;47.00;;;;;;2319538;58;21117;-78
2022/05/14 13:20:42;;;;;;;11.73;3.30;;;20.70;47.50;;;;;;2318874;58;21103;-77
2022/05/14 13:23:19;;;;;;;10.73;2.42;;;20.60;47.40;;;;;;2319912;58;21100;-77
2022/05/14 13:25:58;;;;;;;6.37;2.53;;;20.60;47.50;;;;;;2318819;58;21099;-78
2022/05/14 13:28:28;;;;;;;10.77;2.15;;;20.40;47.90;;;;;;2320017;58;21112;-77
2022/05/14 13:30:55;;;;;;;7.65;2.47;;;20.40;48.30;;;;;;2317617;58;21154;-77
2022/05/14 13:33:28;;;;;;;8.77;2.78;;;20.40;47.40;;;;;;2319026;58;21175;-76